createdAt,value
2019-04-21T00:01:03.459Z,994.79
2019-04-21T00:01:59.667Z,994.76
2019-04-21T00:02:59.594Z,994.75
2019-04-21T00:04:09.471Z,994.76
2019-04-21T00:05:19.994Z,994.69
2019-04-21T00:06:18.383Z,994.64
2019-04-21T00:07:31.655Z,994.61
2019-04-21T00:08:24.866Z,994.60
2019-04-21T00:09:31.535Z,994.61
2019-04-21T00:10:18.482Z,994.58
2019-04-21T00:12:18.260Z,994.58
2019-04-21T00:13:13.526Z,994.58
2019-04-21T00:14:09.025Z,994.55
2019-04-21T00:15:09.747Z,994.54
2019-04-21T00:16:03.177Z,994.49
2019-04-21T00:17:05.087Z,994.47
2019-04-21T00:18:01.012Z,994.47
2019-04-21T00:19:03.230Z,994.40
2019-04-21T00:20:09.216Z,994.42
2019-04-21T00:21:09.572Z,994.40
2019-04-21T00:22:09.918Z,994.38
2019-04-21T00:23:15.579Z,994.38
2019-04-21T00:24:12.688Z,994.37
2019-04-21T00:25:13.014Z,994.32
2019-04-21T00:26:07.688Z,994.29
2019-04-21T00:27:14.429Z,994.28
2019-04-21T00:28:16.826Z,994.22
2019-04-21T00:29:16.570Z,994.20
2019-04-21T00:30:15.847Z,994.17
2019-04-21T00:31:12.621Z,994.16
2019-04-21T00:32:10.128Z,994.16
2019-04-21T00:33:05.325Z,994.15
2019-04-21T00:33:56.752Z,994.12
2019-04-21T00:35:03.298Z,994.09
2019-04-21T00:36:05.383Z,994.05
2019-04-21T00:37:08.514Z,994.01
2019-04-21T00:38:22.784Z,994.01
2019-04-21T00:40:16.589Z,993.96
2019-04-21T00:41:20.446Z,993.94
2019-04-21T00:42:13.868Z,993.92
2019-04-21T00:43:07.845Z,993.88
2019-04-21T00:44:08.757Z,993.87
2019-04-21T00:45:08.086Z,993.88
2019-04-21T00:46:03.438Z,993.84
2019-04-21T00:47:08.520Z,993.86
2019-04-21T00:48:16.561Z,993.85
2019-04-21T00:49:10.905Z,993.83
2019-04-21T00:50:17.929Z,993.81
2019-04-21T00:52:33.383Z,993.74
2019-04-21T00:53:24.529Z,993.75
2019-04-21T00:54:18.456Z,993.74
2019-04-21T00:56:34.421Z,993.73
2019-04-21T00:57:19.603Z,993.69
2019-04-21T00:58:18.353Z,993.67
2019-04-21T00:59:21.388Z,993.70
2019-04-21T01:00:20.245Z,993.68
2019-04-21T01:01:14.986Z,993.67
2019-04-21T01:02:12.722Z,993.64
2019-04-21T01:03:14.661Z,993.59
2019-04-21T01:04:15.360Z,993.60
2019-04-21T01:05:18.625Z,993.57
2019-04-21T01:06:18.781Z,993.60
2019-04-21T01:07:17.639Z,993.54
2019-04-21T01:08:13.889Z,993.49
2019-04-21T01:10:05.196Z,993.46
2019-04-21T01:11:17.945Z,993.46
2019-04-21T01:12:12.543Z,993.44
2019-04-21T01:13:16.946Z,993.39
2019-04-21T01:14:22.252Z,993.38
2019-04-21T01:15:18.406Z,993.35
2019-04-21T01:16:22.272Z,993.32
2019-04-21T01:17:19.190Z,993.35
2019-04-21T01:18:16.488Z,993.29
2019-04-21T01:19:13.906Z,993.26
2019-04-21T01:20:08.192Z,993.29
2019-04-21T01:20:52.863Z,993.22
2019-04-21T01:21:52.793Z,993.23
2019-04-21T01:22:53.713Z,993.22
2019-04-21T01:23:56.587Z,993.20
2019-04-21T01:25:01.810Z,993.19
2019-04-21T01:26:06.334Z,993.14
2019-04-21T01:27:02.001Z,993.10
2019-04-21T01:28:09.962Z,993.10
2019-04-21T01:29:05.437Z,993.08
2019-04-21T01:30:12.505Z,993.08
2019-04-21T01:31:09.813Z,993.09
2019-04-21T01:32:19.602Z,993.04
2019-04-21T01:33:15.202Z,993.03
2019-04-21T01:34:15.312Z,993.02
2019-04-21T01:35:10.187Z,993.00
2019-04-21T01:36:08.421Z,993.03
2019-04-21T01:37:04.677Z,992.96
2019-04-21T01:38:17.687Z,992.99
2019-04-21T01:39:13.267Z,993.01
2019-04-21T01:40:18.387Z,992.98
2019-04-21T01:41:12.978Z,992.96
2019-04-21T01:42:08.876Z,992.94
2019-04-21T01:43:07.859Z,992.94
2019-04-21T01:44:19.698Z,992.93
2019-04-21T01:45:11.481Z,992.87
2019-04-21T01:46:09.290Z,992.87
2019-04-21T01:47:08.378Z,992.84
2019-04-21T01:48:05.764Z,992.88
2019-04-21T01:49:05.520Z,992.85
2019-04-21T01:49:59.355Z,992.84
2019-04-21T01:51:05.322Z,992.84
2019-04-21T01:52:32.580Z,992.77
2019-04-21T01:53:18.225Z,992.77
2019-04-21T01:54:18.529Z,992.68
2019-04-21T01:55:13.833Z,992.73
2019-04-21T01:56:11.836Z,992.69
2019-04-21T01:57:10.422Z,992.69
2019-04-21T01:58:02.093Z,992.69
2019-04-21T01:59:00.796Z,992.66
2019-04-21T02:00:02.356Z,992.63
2019-04-21T02:01:04.710Z,992.62
2019-04-21T02:02:10.626Z,992.60
2019-04-21T02:03:26.415Z,992.59
2019-04-21T02:04:07.247Z,992.61
2019-04-21T02:05:18.857Z,992.59
2019-04-21T02:06:18.540Z,992.54
2019-04-21T02:07:10.255Z,992.54
2019-04-21T02:09:10.136Z,992.47
2019-04-21T02:11:12.517Z,992.45
2019-04-21T02:12:10.617Z,992.41
2019-04-21T02:13:08.958Z,992.40
2019-04-21T02:14:11.590Z,992.39
2019-04-21T02:15:11.290Z,992.37
2019-04-21T02:16:11.279Z,992.37
2019-04-21T02:17:14.869Z,992.33
2019-04-21T02:18:10.452Z,992.28
2019-04-21T02:19:04.420Z,992.31
2019-04-21T02:20:03.901Z,992.33
2019-04-21T02:20:59.263Z,992.31
2019-04-21T02:21:59.582Z,992.29
2019-04-21T02:23:34.653Z,992.25
2019-04-21T02:24:16.976Z,992.26
2019-04-21T02:25:26.138Z,992.26
2019-04-21T02:26:12.705Z,992.24
2019-04-21T02:27:13.001Z,992.20
2019-04-21T02:28:13.430Z,992.19
2019-04-21T02:29:15.531Z,992.18
2019-04-21T02:30:18.589Z,992.13
2019-04-21T02:32:14.443Z,992.16
2019-04-21T02:33:33.867Z,992.12
2019-04-21T02:34:16.596Z,992.15
2019-04-21T02:36:39.631Z,992.11
2019-04-21T02:38:23.663Z,992.11
2019-04-21T02:39:19.160Z,992.08
2019-04-21T02:40:21.547Z,992.07
2019-04-21T02:41:18.357Z,992.03
2019-04-21T02:43:21.107Z,991.97
2019-04-21T02:44:23.374Z,991.97
2019-04-21T02:45:20.855Z,991.97
2019-04-21T02:46:23.894Z,991.91
2019-04-21T02:48:17.263Z,991.90
2019-04-21T02:49:22.494Z,991.89
2019-04-21T02:50:21.601Z,991.92
2019-04-21T02:51:19.658Z,991.92
2019-04-21T02:52:30.032Z,991.92
2019-04-21T02:53:20.423Z,991.92
2019-04-21T02:54:40.973Z,991.95
2019-04-21T02:55:17.614Z,991.91
2019-04-21T02:56:18.606Z,991.91
2019-04-21T02:57:17.574Z,991.87
2019-04-21T02:58:25.455Z,991.88
2019-04-21T03:00:30.307Z,991.79
2019-04-21T03:01:23.562Z,991.83
2019-04-21T03:03:19.640Z,991.75
2019-04-21T03:06:18.663Z,991.76
2019-04-21T03:08:14.372Z,991.75
2019-04-21T03:09:17.738Z,991.78
2019-04-21T03:10:18.373Z,991.72
2019-04-21T03:13:21.764Z,991.68
2019-04-21T03:14:25.004Z,991.65
2019-04-21T03:16:23.326Z,991.60
2019-04-21T03:17:14.687Z,991.62
2019-04-21T03:18:16.003Z,991.59
2019-04-21T03:19:15.995Z,991.57
2019-04-21T03:20:19.030Z,991.54
2019-04-21T03:21:17.922Z,991.51
2019-04-21T03:23:23.266Z,991.47
2019-04-21T03:24:49.263Z,991.45
2019-04-21T03:25:25.334Z,991.42
2019-04-21T03:26:20.431Z,991.39
2019-04-21T03:27:37.008Z,991.35
2019-04-21T03:28:14.168Z,991.36
2019-04-21T03:29:22.420Z,991.31
2019-04-21T03:32:50.372Z,991.28
2019-04-21T03:35:58.310Z,991.27
2019-04-21T03:36:40.109Z,991.25
2019-04-21T03:37:19.077Z,991.24
2019-04-21T03:39:11.251Z,991.19
2019-04-21T03:41:10.649Z,991.17
2019-04-21T03:42:28.876Z,991.15
2019-04-21T03:43:16.644Z,991.14
2019-04-21T03:44:14.605Z,991.14
2019-04-21T03:45:31.001Z,991.15
2019-04-21T03:46:20.722Z,991.17
2019-04-21T03:47:20.819Z,991.16
2019-04-21T03:49:20.763Z,991.09
2019-04-21T03:50:17.806Z,991.07
2019-04-21T03:51:23.448Z,991.03
2019-04-21T03:52:27.833Z,991.03
2019-04-21T03:53:18.718Z,991.02
2019-04-21T03:54:13.680Z,991.05
2019-04-21T03:55:36.075Z,991.02
2019-04-21T03:57:38.606Z,991.02
2019-04-21T03:59:03.727Z,991.00
2019-04-21T04:00:27.510Z,990.99
2019-04-21T04:02:16.588Z,990.90
2019-04-21T04:04:22.613Z,990.86
2019-04-21T04:05:23.773Z,990.86
2019-04-21T04:07:25.004Z,990.87
2019-04-21T04:12:13.385Z,990.73
2019-04-21T04:13:20.491Z,990.72
2019-04-21T04:15:18.330Z,990.72
2019-04-21T04:16:10.667Z,990.67
2019-04-21T04:18:17.760Z,990.64
2019-04-21T04:19:09.607Z,990.59
2019-04-21T04:20:17.866Z,990.56
2019-04-21T04:22:31.843Z,990.51
2019-04-21T04:23:13.936Z,990.53
2019-04-21T04:24:15.090Z,990.56
2019-04-21T04:25:27.989Z,990.52
2019-04-21T04:27:20.761Z,990.45
2019-04-21T04:28:36.298Z,990.49
2019-04-21T04:29:10.831Z,990.51
2019-04-21T04:30:14.215Z,990.54
2019-04-21T04:31:20.416Z,990.49
2019-04-21T04:32:04.021Z,990.49
2019-04-21T04:33:07.998Z,990.46
2019-04-21T04:34:12.744Z,990.46
2019-04-21T04:35:10.468Z,990.45
2019-04-21T04:36:36.011Z,990.45
2019-04-21T04:38:12.903Z,990.39
2019-04-21T04:39:27.519Z,990.38
2019-04-21T04:41:14.629Z,990.40
2019-04-21T04:42:27.007Z,990.42
2019-04-21T04:43:11.901Z,990.41
2019-04-21T04:44:13.360Z,990.43
2019-04-21T04:46:07.138Z,990.40
2019-04-21T04:49:12.808Z,990.42
2019-04-21T04:50:04.088Z,990.41
2019-04-21T04:52:31.247Z,990.38
2019-04-21T04:53:12.015Z,990.34
2019-04-21T04:54:19.897Z,990.36
2019-04-21T04:55:06.747Z,990.28
2019-04-21T04:57:17.329Z,990.26
2019-04-21T04:58:07.570Z,990.24
2019-04-21T05:03:03.614Z,990.32
2019-04-21T05:04:10.141Z,990.30
2019-04-21T05:05:15.642Z,990.30
2019-04-21T05:06:12.007Z,990.27
2019-04-21T05:07:07.070Z,990.27
2019-04-21T05:11:30.966Z,990.24
2019-04-21T05:12:19.420Z,990.26
2019-04-21T05:13:14.350Z,990.24
2019-04-21T05:16:14.401Z,990.26
2019-04-21T05:17:10.821Z,990.24
2019-04-21T05:18:04.641Z,990.28
2019-04-21T05:19:10.675Z,990.31
2019-04-21T05:20:11.614Z,990.30
2019-04-21T05:21:14.717Z,990.31
2019-04-21T05:22:05.503Z,990.30
2019-04-21T05:22:58.321Z,990.33
2019-04-21T05:24:10.803Z,990.31
2019-04-21T05:24:53.894Z,990.30
2019-04-21T05:25:51.043Z,990.35
2019-04-21T05:26:52.887Z,990.35
2019-04-21T05:27:55.331Z,990.32
2019-04-21T05:28:49.799Z,990.33
2019-04-21T05:30:03.202Z,990.35
2019-04-21T05:31:06.666Z,990.37
2019-04-21T05:31:56.951Z,990.36
2019-04-21T05:33:00.282Z,990.39
2019-04-21T05:34:00.111Z,990.39
2019-04-21T05:34:55.694Z,990.37
2019-04-21T05:35:56.040Z,990.37
2019-04-21T05:36:59.545Z,990.32
2019-04-21T05:37:53.806Z,990.36
2019-04-21T05:38:53.076Z,990.32
2019-04-21T05:39:52.409Z,990.32
2019-04-21T05:40:51.240Z,990.29
2019-04-21T05:41:43.008Z,990.26
2019-04-21T05:42:49.584Z,990.21
2019-04-21T05:44:01.607Z,990.21
2019-04-21T05:45:04.355Z,990.22
2019-04-21T05:45:58.112Z,990.15
2019-04-21T05:47:07.679Z,990.20
2019-04-21T05:48:10.129Z,990.19
2019-04-21T05:48:52.482Z,990.17
2019-04-21T05:49:50.000Z,990.17
2019-04-21T05:50:53.752Z,990.18
2019-04-21T05:51:49.886Z,990.16
2019-04-21T05:52:51.609Z,990.16
2019-04-21T05:54:04.367Z,990.21
2019-04-21T05:54:57.340Z,990.24
2019-04-21T05:55:58.387Z,990.22
2019-04-21T05:56:55.457Z,990.30
2019-04-21T05:57:54.117Z,990.27
2019-04-21T05:58:58.100Z,990.28
2019-04-21T05:59:57.555Z,990.22
2019-04-21T06:01:15.126Z,990.23
2019-04-21T06:01:57.209Z,990.26
2019-04-21T06:02:57.779Z,990.22
2019-04-21T06:04:00.224Z,990.25
2019-04-21T06:06:00.361Z,990.26
2019-04-21T06:06:56.947Z,990.25
2019-04-21T06:07:57.082Z,990.32
2019-04-21T06:08:52.695Z,990.29
2019-04-21T06:09:57.091Z,990.29
2019-04-21T06:10:53.992Z,990.30
2019-04-21T06:11:55.521Z,990.27
2019-04-21T06:12:59.861Z,990.26
2019-04-21T06:14:02.515Z,990.25
2019-04-21T06:14:57.403Z,990.25
2019-04-21T06:16:00.288Z,990.25
2019-04-21T06:16:55.663Z,990.24
2019-04-21T06:17:57.859Z,990.20
2019-04-21T06:19:56.914Z,990.10
2019-04-21T06:20:54.584Z,990.13
2019-04-21T06:21:51.096Z,990.17
2019-04-21T06:22:57.480Z,990.18
2019-04-21T06:23:50.181Z,990.14
2019-04-21T06:25:21.007Z,990.16
2019-04-21T06:26:16.391Z,990.12
2019-04-21T06:27:19.336Z,990.12
2019-04-21T06:27:57.480Z,990.09
2019-04-21T06:28:51.826Z,990.10
2019-04-21T06:29:57.498Z,990.14
2019-04-21T06:31:08.062Z,990.12
2019-04-21T06:33:11.723Z,990.13
2019-04-21T06:33:50.484Z,990.13
2019-04-21T06:36:21.482Z,990.12
2019-04-21T06:36:57.276Z,990.05
2019-04-21T06:37:50.620Z,990.03
2019-04-21T06:40:09.298Z,990.06
2019-04-21T06:41:00.452Z,990.09
2019-04-21T06:41:49.013Z,990.09
2019-04-21T06:43:07.939Z,990.12
2019-04-21T06:45:55.653Z,990.10
2019-04-21T06:46:51.695Z,990.12
2019-04-21T06:47:57.575Z,990.16
2019-04-21T06:48:55.800Z,990.10
2019-04-21T06:49:50.121Z,990.10
2019-04-21T06:50:52.536Z,990.08
2019-04-21T06:51:49.841Z,990.05
2019-04-21T06:52:54.940Z,990.05
2019-04-21T06:53:59.269Z,990.06
2019-04-21T06:54:57.234Z,990.07
2019-04-21T06:55:52.432Z,990.06
2019-04-21T06:57:00.462Z,990.09
2019-04-21T06:57:55.810Z,990.10
2019-04-21T06:58:51.504Z,990.12
2019-04-21T06:59:54.257Z,990.10
2019-04-21T07:00:46.989Z,990.12
2019-04-21T07:02:26.421Z,990.12
2019-04-21T07:03:14.149Z,990.16
2019-04-21T07:04:03.469Z,990.12
2019-04-21T07:04:54.744Z,990.12
2019-04-21T07:05:57.276Z,990.11
2019-04-21T07:08:09.287Z,990.01
2019-04-21T07:09:04.579Z,989.98
2019-04-21T07:09:53.083Z,989.98
2019-04-21T07:10:51.702Z,989.99
2019-04-21T07:11:50.525Z,989.99
2019-04-21T07:12:45.419Z,989.92
2019-04-21T07:13:44.114Z,989.92
2019-04-21T07:14:49.464Z,989.90
2019-04-21T07:15:53.528Z,989.89
2019-04-21T07:16:51.448Z,989.87
2019-04-21T07:17:50.016Z,989.85
2019-04-21T07:19:01.388Z,989.84
2019-04-21T07:20:07.313Z,989.84
2019-04-21T07:20:50.523Z,989.83
2019-04-21T07:21:53.394Z,989.86
2019-04-21T07:22:51.184Z,989.85
2019-04-21T07:23:57.236Z,989.83
2019-04-21T07:24:51.900Z,989.83
2019-04-21T07:25:53.235Z,989.86
2019-04-21T07:26:51.546Z,989.86
2019-04-21T07:28:58.182Z,989.87
2019-04-21T07:29:55.030Z,989.86
2019-04-21T07:30:57.544Z,989.86
2019-04-21T07:31:54.190Z,989.87
2019-04-21T07:32:55.291Z,989.85
2019-04-21T07:34:53.844Z,989.87
2019-04-21T07:35:43.176Z,989.87
2019-04-21T07:36:56.025Z,989.83
2019-04-21T07:37:51.850Z,989.82
2019-04-21T07:38:45.849Z,989.86
2019-04-21T07:39:45.214Z,989.87
2019-04-21T07:40:43.023Z,989.86
2019-04-21T07:41:44.062Z,989.91
2019-04-21T07:42:43.528Z,989.89
2019-04-21T07:43:38.027Z,989.90
2019-04-21T07:44:39.244Z,989.87
2019-04-21T07:45:40.555Z,989.89
2019-04-21T07:46:38.517Z,989.83
2019-04-21T07:47:47.752Z,989.83
2019-04-21T07:48:43.215Z,989.82
2019-04-21T07:50:48.728Z,989.84
2019-04-21T07:51:53.461Z,989.83
2019-04-21T07:52:49.360Z,989.83
2019-04-21T07:53:49.464Z,989.83
2019-04-21T07:54:57.427Z,989.88
2019-04-21T07:56:33.223Z,989.81
2019-04-21T07:57:39.443Z,989.86
2019-04-21T07:58:54.194Z,989.80
2019-04-21T08:00:04.094Z,989.81
2019-04-21T08:00:51.389Z,989.78
2019-04-21T08:01:48.474Z,989.77
2019-04-21T08:03:00.517Z,989.80
2019-04-21T08:03:45.769Z,989.84
2019-04-21T08:04:53.490Z,989.82
2019-04-21T08:05:51.054Z,989.78
2019-04-21T08:06:46.482Z,989.81
2019-04-21T08:08:42.343Z,989.83
2019-04-21T08:09:42.297Z,989.82
2019-04-21T08:10:40.563Z,989.80
2019-04-21T08:11:36.842Z,989.81
2019-04-21T08:12:41.902Z,989.78
2019-04-21T08:13:56.140Z,989.74
2019-04-21T08:14:43.573Z,989.76
2019-04-21T08:15:44.516Z,989.73
2019-04-21T08:16:44.931Z,989.73
2019-04-21T08:17:41.409Z,989.73
2019-04-21T08:18:45.474Z,989.72
2019-04-21T08:19:43.049Z,989.72
2019-04-21T08:20:43.696Z,989.71
2019-04-21T08:21:45.920Z,989.71
2019-04-21T08:22:47.915Z,989.68
2019-04-21T08:23:43.458Z,989.72
2019-04-21T08:24:42.395Z,989.70
2019-04-21T08:25:53.270Z,989.67
2019-04-21T08:26:45.186Z,989.76
2019-04-21T08:27:51.259Z,989.68
2019-04-21T08:28:49.377Z,989.66
2019-04-21T08:29:46.527Z,989.66
2019-04-21T08:30:42.849Z,989.70
2019-04-21T08:31:51.672Z,989.67
2019-04-21T08:32:51.742Z,989.67
2019-04-21T08:34:00.662Z,989.67
2019-04-21T08:34:42.928Z,989.65
2019-04-21T08:36:40.116Z,989.66
2019-04-21T08:37:44.991Z,989.65
2019-04-21T08:38:45.886Z,989.66
2019-04-21T08:39:50.993Z,989.63
2019-04-21T08:41:43.962Z,989.65
2019-04-21T08:42:38.710Z,989.66
2019-04-21T08:44:01.769Z,989.66
2019-04-21T08:45:41.553Z,989.65
2019-04-21T08:46:39.168Z,989.66
2019-04-21T08:47:46.079Z,989.63
2019-04-21T08:48:48.023Z,989.62
2019-04-21T08:49:44.282Z,989.64
2019-04-21T08:50:41.585Z,989.60
2019-04-21T08:51:53.870Z,989.66
2019-04-21T08:52:57.016Z,989.60
2019-04-21T08:53:41.142Z,989.70
2019-04-21T08:54:43.502Z,989.64
2019-04-21T08:55:39.722Z,989.63
2019-04-21T08:56:45.322Z,989.64
2019-04-21T08:57:51.015Z,989.62
2019-04-21T08:58:47.819Z,989.61
2019-04-21T08:59:38.828Z,989.60
2019-04-21T09:00:38.872Z,989.59
2019-04-21T09:01:43.118Z,989.61
2019-04-21T09:02:41.797Z,989.60
2019-04-21T09:03:44.622Z,989.61
2019-04-21T09:04:33.576Z,989.54
2019-04-21T09:05:36.342Z,989.56
2019-04-21T09:06:54.057Z,989.47
2019-04-21T09:07:41.713Z,989.53
2019-04-21T09:08:40.405Z,989.50
2019-04-21T09:09:41.214Z,989.49
2019-04-21T09:10:39.387Z,989.46
2019-04-21T09:11:37.290Z,989.46
2019-04-21T09:12:34.724Z,989.47
2019-04-21T09:13:38.216Z,989.41
2019-04-21T09:14:36.496Z,989.41
2019-04-21T09:15:35.136Z,989.39
2019-04-21T09:16:35.184Z,989.43
2019-04-21T09:17:31.596Z,989.43
2019-04-21T09:18:33.772Z,989.40
2019-04-21T09:19:51.557Z,989.43
2019-04-21T09:20:55.122Z,989.43
2019-04-21T09:21:37.449Z,989.45
2019-04-21T09:22:37.739Z,989.44
2019-04-21T09:23:39.151Z,989.45
2019-04-21T09:24:37.359Z,989.47
2019-04-21T09:25:44.874Z,989.45
2019-04-21T09:26:35.628Z,989.45
2019-04-21T09:27:30.788Z,989.43
2019-04-21T09:28:32.203Z,989.39
2019-04-21T09:29:28.337Z,989.38
2019-04-21T09:30:19.702Z,989.41
2019-04-21T09:31:25.192Z,989.45
2019-04-21T09:32:23.173Z,989.46
2019-04-21T09:33:18.481Z,989.45
2019-04-21T09:34:27.137Z,989.41
2019-04-21T09:35:19.121Z,989.41
2019-04-21T09:36:21.289Z,989.38
2019-04-21T09:37:28.663Z,989.39
2019-04-21T09:38:28.337Z,989.37
2019-04-21T09:39:20.728Z,989.33
2019-04-21T09:40:26.127Z,989.32
2019-04-21T09:41:22.014Z,989.34
2019-04-21T09:42:19.699Z,989.35
2019-04-21T09:43:25.651Z,989.36
2019-04-21T09:44:25.413Z,989.35
2019-04-21T09:45:17.678Z,989.36
2019-04-21T09:46:18.455Z,989.36
2019-04-21T09:47:21.700Z,989.34
2019-04-21T09:48:20.745Z,989.35
2019-04-21T09:49:22.564Z,989.33
2019-04-21T09:50:17.417Z,989.35
2019-04-21T09:51:17.825Z,989.40
2019-04-21T09:52:20.921Z,989.38
2019-04-21T09:53:24.867Z,989.38
2019-04-21T09:54:23.075Z,989.40
2019-04-21T09:55:21.068Z,989.36
2019-04-21T09:56:23.780Z,989.33
2019-04-21T09:57:27.725Z,989.34
2019-04-21T09:58:24.934Z,989.37
2019-04-21T09:59:23.775Z,989.36
2019-04-21T10:00:22.735Z,989.32
2019-04-21T10:01:22.835Z,989.35
2019-04-21T10:02:27.415Z,989.32
2019-04-21T10:03:17.675Z,989.30
2019-04-21T10:04:16.446Z,989.31
2019-04-21T10:05:16.850Z,989.30
2019-04-21T10:06:17.467Z,989.29
2019-04-21T10:07:25.803Z,989.24
2019-04-21T10:08:16.642Z,989.30
2019-04-21T10:09:18.394Z,989.31
2019-04-21T10:10:15.412Z,989.30
2019-04-21T10:11:16.495Z,989.30
2019-04-21T10:12:16.285Z,989.31
2019-04-21T10:13:15.261Z,989.33
2019-04-21T10:14:15.127Z,989.34
2019-04-21T10:15:16.439Z,989.29
2019-04-21T10:16:15.193Z,989.30
2019-04-21T10:17:15.145Z,989.32
2019-04-21T10:18:15.095Z,989.29
2019-04-21T10:19:15.276Z,989.28
2019-04-21T10:20:14.716Z,989.29
2019-04-21T10:21:15.434Z,989.29
2019-04-21T10:22:14.865Z,989.22
2019-04-21T10:23:15.548Z,989.24
2019-04-21T10:24:14.435Z,989.24
2019-04-21T10:25:14.570Z,989.25
2019-04-21T10:26:14.601Z,989.18
2019-04-21T10:27:14.814Z,989.19
2019-04-21T10:28:14.990Z,989.19
2019-04-21T10:29:21.774Z,989.18
2019-04-21T10:30:14.262Z,989.19
2019-04-21T10:31:14.413Z,989.17
2019-04-21T10:32:13.875Z,989.15
2019-04-21T10:33:14.410Z,989.14
2019-04-21T10:34:13.732Z,989.12
2019-04-21T10:35:14.889Z,989.12
2019-04-21T10:36:13.580Z,989.11
2019-04-21T10:37:13.506Z,989.10
2019-04-21T10:38:25.235Z,989.10
2019-04-21T10:39:13.711Z,989.09
2019-04-21T10:40:13.783Z,989.04
2019-04-21T10:41:13.225Z,989.02
2019-04-21T10:42:13.287Z,988.97
2019-04-21T10:43:14.251Z,988.99
2019-04-21T10:44:13.494Z,988.95
2019-04-21T10:45:12.974Z,988.96
2019-04-21T10:46:13.002Z,988.92
2019-04-21T10:47:14.382Z,988.90
2019-04-21T10:48:12.853Z,988.87
2019-04-21T10:49:12.806Z,988.84
2019-04-21T10:50:13.098Z,988.87
2019-04-21T10:51:13.012Z,988.83
2019-04-21T10:52:12.986Z,988.83
2019-04-21T10:53:14.291Z,988.83
2019-04-21T10:54:13.610Z,988.81
2019-04-21T10:55:35.592Z,988.78
2019-04-21T10:56:20.149Z,988.76
2019-04-21T10:57:12.560Z,988.71
2019-04-21T10:58:12.056Z,988.74
2019-04-21T10:59:12.148Z,988.68
2019-04-21T11:00:13.605Z,988.68
2019-04-21T11:01:12.721Z,988.64
2019-04-21T11:02:12.793Z,988.61
2019-04-21T11:03:12.954Z,988.59
2019-04-21T11:04:20.218Z,988.54
2019-04-21T11:05:12.526Z,988.54
2019-04-21T11:06:12.686Z,988.53
2019-04-21T11:07:17.470Z,988.49
2019-04-21T11:08:21.617Z,988.46
2019-04-21T11:09:11.284Z,988.47
2019-04-21T11:10:11.947Z,988.45
2019-04-21T11:11:12.113Z,988.45
2019-04-21T11:12:11.065Z,988.40
2019-04-21T11:13:11.006Z,988.40
2019-04-21T11:14:10.937Z,988.41
2019-04-21T11:15:11.525Z,988.41
2019-04-21T11:16:11.108Z,988.35
2019-04-21T11:17:12.175Z,988.35
2019-04-21T11:18:10.645Z,988.34
2019-04-21T11:19:11.652Z,988.33
2019-04-21T11:20:10.848Z,988.28
2019-04-21T11:21:11.093Z,988.26
2019-04-21T11:22:10.506Z,988.27
2019-04-21T11:23:10.312Z,988.27
2019-04-21T11:24:10.322Z,988.23
2019-04-21T11:25:11.195Z,988.21
2019-04-21T11:26:10.105Z,988.19
2019-04-21T11:27:10.948Z,988.20
2019-04-21T11:28:11.182Z,988.18
2019-04-21T11:29:10.807Z,988.16
2019-04-21T11:30:09.822Z,988.18
2019-04-21T11:31:11.093Z,988.12
2019-04-21T11:32:09.679Z,988.08
2019-04-21T11:33:11.150Z,988.04
2019-04-21T11:34:09.543Z,988.02
2019-04-21T11:35:09.543Z,988.02
2019-04-21T11:36:09.411Z,988.03
2019-04-21T11:37:10.202Z,987.96
2019-04-21T11:38:17.002Z,987.97
2019-04-21T11:39:22.009Z,988.00
2019-04-21T11:40:11.402Z,987.95
2019-04-21T11:41:09.721Z,987.96
2019-04-21T11:42:10.077Z,987.96
2019-04-21T11:43:09.570Z,987.93
2019-04-21T11:44:09.848Z,987.96
2019-04-21T11:45:10.389Z,987.92
2019-04-21T11:46:08.713Z,987.89
2019-04-21T11:47:10.149Z,987.91
2019-04-21T11:48:08.592Z,987.88
2019-04-21T11:49:08.514Z,987.89
2019-04-21T11:50:08.451Z,987.87
2019-04-21T11:51:09.037Z,987.89
2019-04-21T11:52:09.199Z,987.85
2019-04-21T11:53:08.395Z,987.88
2019-04-21T11:54:08.733Z,987.87
2019-04-21T11:55:08.958Z,987.87
2019-04-21T11:56:09.031Z,987.88
2019-04-21T11:57:14.125Z,987.88
2019-04-21T11:58:07.894Z,987.92
2019-04-21T11:59:08.061Z,987.86
2019-04-21T12:00:07.753Z,987.89
2019-04-21T12:01:07.816Z,987.86
2019-04-21T12:02:07.912Z,987.84
2019-04-21T12:03:07.553Z,987.83
2019-04-21T12:04:07.627Z,987.81
2019-04-21T12:05:07.593Z,987.83
2019-04-21T12:06:07.340Z,987.79
2019-04-21T12:07:07.369Z,987.76
2019-04-21T12:08:18.853Z,987.77
2019-04-21T12:09:08.581Z,987.75
2019-04-21T12:10:07.080Z,987.78
2019-04-21T12:11:07.349Z,987.79
2019-04-21T12:12:07.474Z,987.72
2019-04-21T12:13:07.495Z,987.72
2019-04-21T12:14:07.915Z,987.73
2019-04-21T12:15:08.035Z,987.71
2019-04-21T12:16:07.224Z,987.68
2019-04-21T12:17:07.824Z,987.69
2019-04-21T12:18:07.903Z,987.64
2019-04-21T12:19:07.153Z,987.64
2019-04-21T12:20:06.489Z,987.63
2019-04-21T12:21:07.480Z,987.64
2019-04-21T12:22:14.436Z,987.62
2019-04-21T12:23:06.716Z,987.59
2019-04-21T12:24:07.025Z,987.65
2019-04-21T12:25:07.171Z,987.60
2019-04-21T12:26:07.248Z,987.53
2019-04-21T12:27:05.912Z,987.53
2019-04-21T12:28:05.892Z,987.54
2019-04-21T12:29:06.033Z,987.52
2019-04-21T12:30:06.039Z,987.51
2019-04-21T12:31:05.650Z,987.47
2019-04-21T12:32:05.687Z,987.49
2019-04-21T12:33:06.125Z,987.50
2019-04-21T12:34:05.740Z,987.54
2019-04-21T12:35:06.122Z,987.49
2019-04-21T12:36:06.143Z,987.50
2019-04-21T12:37:06.609Z,987.46
2019-04-21T12:38:05.178Z,987.45
2019-04-21T12:39:06.925Z,987.45
2019-04-21T12:40:06.353Z,987.43
2019-04-21T12:41:04.973Z,987.44
2019-04-21T12:42:04.911Z,987.43
2019-04-21T12:43:04.838Z,987.39
2019-04-21T12:44:04.766Z,987.38
2019-04-21T12:45:05.627Z,987.37
2019-04-21T12:46:04.635Z,987.32
2019-04-21T12:47:05.738Z,987.40
2019-04-21T12:48:04.481Z,987.39
2019-04-21T12:49:04.427Z,987.36
2019-04-21T12:50:04.640Z,987.31
2019-04-21T12:51:04.280Z,987.35
2019-04-21T12:52:04.212Z,987.32
2019-04-21T12:53:05.105Z,987.33
2019-04-21T12:54:04.072Z,987.28
2019-04-21T12:55:04.019Z,987.33
2019-04-21T12:56:05.337Z,987.35
2019-04-21T12:57:03.871Z,987.34
2019-04-21T12:58:03.800Z,987.32
2019-04-21T12:59:04.946Z,987.35
2019-04-21T13:00:04.821Z,987.36
2019-04-21T13:01:04.952Z,987.34
2019-04-21T13:02:03.550Z,987.33
2019-04-21T13:03:03.694Z,987.33
2019-04-21T13:04:03.909Z,987.31
2019-04-21T13:05:03.938Z,987.33
2019-04-21T13:06:03.554Z,987.33
2019-04-21T13:07:03.710Z,987.30
2019-04-21T13:08:03.764Z,987.30
2019-04-21T13:09:05.792Z,987.31
2019-04-21T13:10:04.276Z,987.29
2019-04-21T13:11:04.293Z,987.27
2019-04-21T13:12:02.852Z,987.28
2019-04-21T13:13:03.835Z,987.26
2019-04-21T13:14:03.995Z,987.28
2019-04-21T13:15:04.096Z,987.25
2019-04-21T13:16:03.215Z,987.25
2019-04-21T13:17:03.449Z,987.21
2019-04-21T13:18:02.792Z,987.21
2019-04-21T13:19:03.023Z,987.21
2019-04-21T13:20:03.443Z,987.22
2019-04-21T13:21:03.903Z,987.19
2019-04-21T13:22:02.156Z,987.20
2019-04-21T13:23:02.170Z,987.18
2019-04-21T13:24:03.090Z,987.17
2019-04-21T13:25:02.393Z,987.11
2019-04-21T13:26:04.354Z,987.13
2019-04-21T13:27:03.637Z,987.13
2019-04-21T13:28:02.899Z,987.11
2019-04-21T13:29:02.679Z,987.10
2019-04-21T13:30:02.238Z,987.09
2019-04-21T13:31:02.291Z,987.10
2019-04-21T13:32:03.723Z,987.12
2019-04-21T13:33:02.922Z,987.11
2019-04-21T13:34:02.187Z,987.03
2019-04-21T13:35:01.368Z,987.00
2019-04-21T13:36:02.731Z,987.00
2019-04-21T13:37:01.507Z,987.01
2019-04-21T13:38:02.515Z,986.96
2019-04-21T13:39:33.037Z,986.95
2019-04-21T13:40:20.645Z,986.93
2019-04-21T13:41:13.183Z,986.91